createdAt,value
2017-07-16T00:00:34.243Z,33.3
2017-07-16T00:01:34.278Z,33.3
2017-07-16T00:02:36.504Z,33.3
2017-07-16T00:03:34.162Z,33.3
2017-07-16T00:04:34.389Z,33.3
2017-07-16T00:05:36.278Z,33.2
2017-07-16T00:06:34.422Z,33.2
2017-07-16T00:07:34.471Z,33.2
2017-07-16T00:08:34.909Z,33.2
2017-07-16T00:09:36.480Z,33.3
2017-07-16T00:10:34.551Z,33.3
2017-07-16T00:11:34.774Z,33.3
2017-07-16T00:12:36.753Z,33.3
2017-07-16T00:13:34.753Z,33.3
2017-07-16T00:14:38.518Z,33.3
2017-07-16T00:15:36.890Z,33.3
2017-07-16T00:16:38.242Z,33.3
2017-07-16T00:17:38.291Z,33.3
2017-07-16T00:18:38.347Z,33.3
2017-07-16T00:19:35.077Z,33.3
2017-07-16T00:20:37.334Z,33.3
2017-07-16T00:21:35.184Z,33.3
2017-07-16T00:22:35.260Z,33.3
2017-07-16T00:23:35.321Z,33.3
2017-07-16T00:24:35.362Z,33.3
2017-07-16T00:25:37.338Z,33.3
2017-07-16T00:26:37.698Z,33.3
2017-07-16T00:27:37.494Z,33.3
2017-07-16T00:28:39.021Z,33.3
2017-07-16T00:29:35.706Z,33.3
2017-07-16T00:30:39.189Z,33.3
2017-07-16T00:31:37.811Z,33.3
2017-07-16T00:32:39.431Z,33.3
2017-07-16T00:33:35.898Z,33.3
2017-07-16T00:34:37.770Z,33.3
2017-07-16T00:35:39.341Z,33.3
2017-07-16T00:36:39.274Z,33.3
2017-07-16T00:37:36.006Z,33.3
2017-07-16T00:38:39.789Z,33.3
2017-07-16T00:39:36.258Z,33.3
2017-07-16T00:40:38.203Z,33.3
2017-07-16T00:41:39.648Z,33.3
2017-07-16T00:42:38.364Z,33.3
2017-07-16T00:43:38.386Z,33.3
2017-07-16T00:44:36.554Z,33.3
2017-07-16T00:45:36.513Z,33.3
2017-07-16T00:46:36.637Z,33.3
2017-07-16T00:47:38.622Z,33.3
2017-07-16T00:48:36.558Z,33.3
2017-07-16T00:49:38.686Z,33.3
2017-07-16T00:50:40.047Z,33.3
2017-07-16T00:51:38.662Z,33.3
2017-07-16T00:52:36.716Z,33.3
2017-07-16T00:53:38.730Z,33.3
2017-07-16T00:54:38.925Z,33.3
2017-07-16T00:55:38.906Z,33.3
2017-07-16T00:56:40.247Z,33.3
2017-07-16T00:57:37.004Z,33.3
2017-07-16T00:58:38.959Z,33.3
2017-07-16T00:59:38.962Z,33.3
2017-07-16T01:00:39.041Z,33.3
2017-07-16T01:01:37.261Z,33.3
2017-07-16T01:02:37.276Z,33.3
2017-07-16T01:03:37.310Z,33.3
2017-07-16T01:04:37.496Z,33.3
2017-07-16T01:05:40.776Z,33.3
2017-07-16T01:06:37.516Z,33.3
2017-07-16T01:07:39.518Z,33.3
2017-07-16T01:08:39.484Z,33.3
2017-07-16T01:09:39.592Z,33.3
2017-07-16T01:10:39.539Z,33.3
2017-07-16T01:11:41.092Z,33.3
2017-07-16T01:12:37.675Z,33.3
2017-07-16T01:13:41.030Z,33.3
2017-07-16T01:14:37.800Z,33.3
2017-07-16T01:15:37.766Z,33.3
2017-07-16T01:16:37.742Z,33.3
2017-07-16T01:17:37.895Z,33.3
2017-07-16T01:18:41.210Z,33.3
2017-07-16T01:19:41.298Z,33.3
2017-07-16T01:20:41.389Z,33.3
2017-07-16T01:21:41.429Z,33.3
2017-07-16T01:22:38.118Z,33.3
2017-07-16T01:23:41.510Z,33.3
2017-07-16T01:24:38.154Z,33.3
2017-07-16T01:25:40.261Z,33.3
2017-07-16T01:26:41.617Z,33.3
2017-07-16T01:27:38.451Z,33.3
2017-07-16T01:28:40.282Z,33.3
2017-07-16T01:29:40.274Z,33.3
2017-07-16T01:30:38.446Z,33.3
2017-07-16T01:31:41.736Z,33.3
2017-07-16T01:32:40.397Z,33.3
2017-07-16T01:33:40.473Z,33.3
2017-07-16T01:34:38.620Z,33.3
2017-07-16T01:35:40.531Z,33.3
2017-07-16T01:36:42.096Z,33.3
2017-07-16T01:37:38.769Z,33.3
2017-07-16T01:38:40.744Z,33.3
2017-07-16T01:39:40.730Z,33.3
2017-07-16T01:40:42.164Z,33.3
2017-07-16T01:41:38.966Z,33.3
2017-07-16T01:42:39.102Z,33.3
2017-07-16T01:43:42.479Z,33.3
2017-07-16T01:44:41.106Z,33.3
2017-07-16T01:45:42.558Z,33.3
2017-07-16T01:46:39.246Z,33.3
2017-07-16T01:47:42.547Z,33.3
2017-07-16T01:48:41.191Z,33.3
2017-07-16T01:49:39.427Z,33.3
2017-07-16T01:50:42.774Z,33.3
2017-07-16T01:51:39.430Z,33.3
2017-07-16T01:52:39.597Z,33.3
2017-07-16T01:53:41.467Z,33.3
2017-07-16T01:54:42.884Z,33.3
2017-07-16T01:55:43.050Z,33.3
2017-07-16T01:56:41.578Z,33.3
2017-07-16T01:57:39.792Z,33.3
2017-07-16T01:58:39.759Z,33.3
2017-07-16T01:59:39.844Z,33.3
2017-07-16T02:00:43.296Z,33.3
2017-07-16T02:01:40.098Z,33.3
2017-07-16T02:02:42.120Z,33.3
2017-07-16T02:03:40.159Z,33.3
2017-07-16T02:04:40.276Z,33.3
2017-07-16T02:05:43.718Z,33.3
2017-07-16T02:06:42.239Z,33.3
2017-07-16T02:07:43.728Z,33.3
2017-07-16T02:08:43.691Z,33.3
2017-07-16T02:09:40.615Z,33.3
2017-07-16T02:10:42.475Z,33.3
2017-07-16T02:11:40.593Z,33.3
2017-07-16T02:12:40.598Z,33.3
2017-07-16T02:13:40.587Z,33.3
2017-07-16T02:14:42.664Z,33.3
2017-07-16T02:15:44.067Z,33.3
2017-07-16T02:16:40.884Z,33.3
2017-07-16T02:17:40.785Z,33.3
2017-07-16T02:18:42.838Z,33.3
2017-07-16T02:19:41.029Z,33.3
2017-07-16T02:20:40.924Z,33.3
2017-07-16T02:21:41.047Z,33.3
2017-07-16T02:22:41.195Z,33.3
2017-07-16T02:23:43.127Z,33.3
2017-07-16T02:24:44.478Z,33.3
2017-07-16T02:25:44.549Z,33.3
2017-07-16T02:26:43.144Z,33.3
2017-07-16T02:27:41.182Z,33.3
2017-07-16T02:28:41.296Z,33.3
2017-07-16T02:29:44.533Z,33.3
2017-07-16T02:30:41.293Z,33.3
2017-07-16T02:31:43.310Z,33.3
2017-07-16T02:32:43.277Z,33.3
2017-07-16T02:33:41.601Z,33.3
2017-07-16T02:34:41.594Z,33.3
2017-07-16T02:35:43.592Z,33.3
2017-07-16T02:36:44.987Z,33.3
2017-07-16T02:37:45.064Z,33.3
2017-07-16T02:38:41.711Z,33.3
2017-07-16T02:39:41.945Z,33.3
2017-07-16T02:40:41.775Z,33.3
2017-07-16T02:41:45.225Z,33.3
2017-07-16T02:42:43.889Z,33.3
2017-07-16T02:43:43.805Z,33.3
2017-07-16T02:44:45.314Z,33.3
2017-07-16T02:45:45.347Z,33.3
2017-07-16T02:46:42.105Z,33.3
2017-07-16T02:47:44.077Z,33.3
2017-07-16T02:48:45.561Z,33.3
2017-07-16T02:49:42.204Z,33.3
2017-07-16T02:50:45.546Z,33.3
2017-07-16T02:51:44.231Z,33.3
2017-07-16T02:52:42.352Z,33.4
2017-07-16T02:53:42.523Z,33.4
2017-07-16T02:54:42.548Z,33.4
2017-07-16T02:55:44.605Z,33.4
2017-07-16T02:56:45.969Z,33.4
2017-07-16T02:57:44.583Z,33.4
2017-07-16T02:58:42.649Z,33.4
2017-07-16T02:59:46.078Z,33.4
2017-07-16T03:00:46.208Z,33.4
2017-07-16T03:01:46.193Z,33.3
2017-07-16T03:02:44.863Z,33.3
2017-07-16T03:03:46.359Z,33.3
2017-07-16T03:04:43.173Z,33.3
2017-07-16T03:05:43.119Z,33.3
2017-07-16T03:06:46.541Z,33.3
2017-07-16T03:07:46.524Z,33.3
2017-07-16T03:08:46.633Z,33.3
2017-07-16T03:09:46.644Z,33.3
2017-07-16T03:10:45.249Z,33.3
2017-07-16T03:11:43.394Z,33.3
2017-07-16T03:12:45.365Z,33.3
2017-07-16T03:13:46.790Z,33.3
2017-07-16T03:14:45.383Z,33.4
2017-07-16T03:15:46.872Z,33.3
2017-07-16T03:16:46.854Z,33.3
2017-07-16T03:17:43.598Z,33.3
2017-07-16T03:18:47.042Z,33.4
2017-07-16T03:19:43.678Z,33.4
2017-07-16T03:20:43.848Z,33.4
2017-07-16T03:21:45.717Z,33.4
2017-07-16T03:22:43.807Z,33.4
2017-07-16T03:23:47.119Z,33.4
2017-07-16T03:24:45.875Z,33.4
2017-07-16T03:25:47.314Z,33.4
2017-07-16T03:26:47.274Z,33.4
2017-07-16T03:27:45.930Z,33.4
2017-07-16T03:28:47.440Z,33.4
2017-07-16T03:29:44.173Z,33.4
2017-07-16T03:30:46.185Z,33.4
2017-07-16T03:31:47.695Z,33.4
2017-07-16T03:32:44.296Z,33.4
2017-07-16T03:33:44.368Z,33.4
2017-07-16T03:34:47.811Z,33.4
2017-07-16T03:35:44.547Z,33.4
2017-07-16T03:36:48.026Z,33.4
2017-07-16T03:37:44.645Z,33.4
2017-07-16T03:38:48.115Z,33.4
2017-07-16T03:39:44.779Z,33.4
2017-07-16T03:40:44.838Z,33.4
2017-07-16T03:41:44.932Z,33.4
2017-07-16T03:42:46.774Z,33.4
2017-07-16T03:43:46.812Z,33.4
2017-07-16T03:44:44.944Z,33.4
2017-07-16T03:45:45.032Z,33.4
2017-07-16T03:46:45.047Z,33.4
2017-07-16T03:47:48.429Z,33.4
2017-07-16T03:48:45.145Z,33.4
2017-07-16T03:49:45.138Z,33.4
2017-07-16T03:50:45.247Z,33.4
2017-07-16T03:51:45.200Z,33.4
2017-07-16T03:52:45.367Z,33.4
2017-07-16T03:53:47.281Z,33.4
2017-07-16T03:54:48.591Z,33.4
2017-07-16T03:55:45.325Z,33.4
2017-07-16T03:56:47.318Z,33.4
2017-07-16T03:57:47.324Z,33.4
2017-07-16T03:58:45.403Z,33.4
2017-07-16T03:59:47.422Z,33.4
2017-07-16T04:00:45.589Z,33.4
2017-07-16T04:01:47.612Z,33.4
2017-07-16T04:02:47.568Z,33.3
2017-07-16T04:03:47.720Z,33.3
2017-07-16T04:04:45.772Z,33.3
2017-07-16T04:05:45.951Z,33.4
2017-07-16T04:06:47.791Z,33.4
2017-07-16T04:07:47.871Z,33.4
2017-07-16T04:08:47.972Z,33.3
2017-07-16T04:09:46.172Z,33.4
2017-07-16T04:10:46.220Z,33.4
2017-07-16T04:11:46.196Z,33.4
2017-07-16T04:12:49.653Z,33.4
2017-07-16T04:13:49.732Z,33.4
2017-07-16T04:14:48.355Z,33.4
2017-07-16T04:15:48.298Z,33.4
2017-07-16T04:16:49.787Z,33.4
2017-07-16T04:17:46.602Z,33.4
2017-07-16T04:18:46.534Z,33.4
2017-07-16T04:19:46.630Z,33.4
2017-07-16T04:20:46.549Z,33.4
2017-07-16T04:21:46.536Z,33.4
2017-07-16T04:22:49.919Z,33.4
2017-07-16T04:23:46.731Z,33.4
2017-07-16T04:24:50.651Z,33.3
2017-07-16T04:25:51.765Z,33.3
2017-07-16T04:26:48.660Z,33.3
2017-07-16T04:27:46.820Z,33.3
2017-07-16T04:28:46.947Z,33.3
2017-07-16T04:29:46.959Z,33.4
2017-07-16T04:30:46.988Z,33.4
2017-07-16T04:31:50.681Z,33.3
2017-07-16T04:32:47.195Z,33.3
2017-07-16T04:33:49.180Z,33.3
2017-07-16T04:34:49.116Z,33.3
2017-07-16T04:35:50.582Z,33.3
2017-07-16T04:36:47.449Z,33.3
2017-07-16T04:37:47.730Z,33.3
2017-07-16T04:38:47.490Z,33.3
2017-07-16T04:39:50.747Z,33.3
2017-07-16T04:40:50.912Z,33.3
2017-07-16T04:41:56.918Z,33.3
2017-07-16T04:42:47.642Z,33.3
2017-07-16T04:43:51.225Z,33.3
2017-07-16T04:44:49.732Z,33.3
2017-07-16T04:45:47.745Z,33.3
2017-07-16T04:46:49.760Z,33.3
2017-07-16T04:47:47.849Z,33.3
2017-07-16T04:48:51.238Z,33.3
2017-07-16T04:49:50.056Z,33.3
2017-07-16T04:50:49.815Z,33.3
2017-07-16T04:51:47.981Z,33.3
2017-07-16T04:52:48.112Z,33.3
2017-07-16T04:53:48.067Z,33.3
2017-07-16T04:54:48.254Z,33.3
2017-07-16T04:55:48.583Z,33.3
2017-07-16T04:56:51.633Z,33.3
2017-07-16T04:57:48.263Z,33.3
2017-07-16T04:58:51.072Z,33.3
2017-07-16T04:59:48.439Z,33.3
2017-07-16T05:00:51.898Z,33.3
2017-07-16T05:01:52.179Z,33.3
2017-07-16T05:02:48.610Z,33.3
2017-07-16T05:03:48.654Z,33.3
2017-07-16T05:04:48.755Z,33.3
2017-07-16T05:05:48.658Z,33.3
2017-07-16T05:06:50.714Z,33.3
2017-07-16T05:07:52.401Z,33.3
2017-07-16T05:08:48.808Z,33.3
2017-07-16T05:09:49.021Z,33.3
2017-07-16T05:10:49.104Z,33.3
2017-07-16T05:11:49.166Z,33.3
2017-07-16T05:12:49.266Z,33.3
2017-07-16T05:13:51.600Z,33.3
2017-07-16T05:14:49.354Z,33.3
2017-07-16T05:15:49.476Z,33.3
2017-07-16T05:16:49.393Z,33.3
2017-07-16T05:17:52.839Z,33.3
2017-07-16T05:18:49.470Z,33.3
2017-07-16T05:19:51.791Z,33.3
2017-07-16T05:20:49.715Z,33.3
2017-07-16T05:21:51.635Z,33.3
2017-07-16T05:22:49.749Z,33.3
2017-07-16T05:23:51.639Z,33.3
2017-07-16T05:24:53.220Z,33.3
2017-07-16T05:25:52.095Z,33.3
2017-07-16T05:26:49.956Z,33.3
2017-07-16T05:27:51.936Z,33.3
2017-07-16T05:28:53.399Z,33.3
2017-07-16T05:29:51.941Z,33.3
2017-07-16T05:30:53.509Z,33.3
2017-07-16T05:31:50.407Z,33.3
2017-07-16T05:32:50.138Z,33.3
2017-07-16T05:33:52.221Z,33.3
2017-07-16T05:34:50.234Z,33.3
2017-07-16T05:35:52.262Z,33.3
2017-07-16T05:36:52.256Z,33.3
2017-07-16T05:37:50.630Z,33.3
2017-07-16T05:38:50.333Z,33.3
2017-07-16T05:39:53.703Z,33.3
2017-07-16T05:40:50.477Z,33.3
2017-07-16T05:41:52.380Z,33.3
2017-07-16T05:42:52.419Z,33.3
2017-07-16T05:43:52.746Z,33.3
2017-07-16T05:44:50.553Z,33.3
2017-07-16T05:45:50.571Z,33.3
2017-07-16T05:46:53.934Z,33.3
2017-07-16T05:47:52.528Z,33.3
2017-07-16T05:48:53.989Z,33.3
2017-07-16T05:49:54.352Z,33.3
2017-07-16T05:50:50.843Z,33.3
2017-07-16T05:51:50.917Z,33.3
2017-07-16T05:52:50.940Z,33.3
2017-07-16T05:53:54.179Z,33.3
2017-07-16T05:54:54.307Z,33.3
2017-07-16T05:55:54.594Z,33.3
2017-07-16T05:56:54.255Z,33.3
2017-07-16T05:57:50.951Z,33.3
2017-07-16T05:58:54.398Z,33.3
2017-07-16T05:59:51.119Z,33.3
2017-07-16T06:00:54.449Z,33.3
2017-07-16T06:01:53.332Z,33.3
2017-07-16T06:02:51.180Z,33.3
2017-07-16T06:03:51.236Z,33.3
2017-07-16T06:04:51.321Z,33.3
2017-07-16T06:05:51.400Z,33.3
2017-07-16T06:06:51.367Z,33.3
2017-07-16T06:07:53.703Z,33.2
2017-07-16T06:08:51.434Z,33.2
2017-07-16T06:09:51.573Z,33.2
2017-07-16T06:10:51.560Z,33.2
2017-07-16T06:11:51.671Z,33.2
2017-07-16T06:12:53.612Z,33.2
2017-07-16T06:13:55.381Z,33.2
2017-07-16T06:14:55.101Z,33.2
2017-07-16T06:15:53.706Z,33.2
2017-07-16T06:16:51.821Z,33.2
2017-07-16T06:17:55.150Z,33.2
2017-07-16T06:18:53.724Z,33.2
2017-07-16T06:19:52.231Z,33.2
2017-07-16T06:20:53.871Z,33.2
2017-07-16T06:21:53.909Z,33.2
2017-07-16T06:22:51.976Z,33.2
2017-07-16T06:23:55.328Z,33.2
2017-07-16T06:24:52.052Z,33.2
2017-07-16T06:25:55.801Z,33.1
2017-07-16T06:26:54.151Z,33.1
2017-07-16T06:27:52.247Z,33.1
2017-07-16T06:28:54.276Z,33.1
2017-07-16T06:29:52.315Z,33.1
2017-07-16T06:30:55.716Z,33.1
2017-07-16T06:31:52.668Z,33.1
2017-07-16T06:32:55.856Z,33.1
2017-07-16T06:33:52.411Z,33.1
2017-07-16T06:34:54.369Z,33.1
2017-07-16T06:35:52.498Z,33.1
2017-07-16T06:36:52.513Z,33.1
2017-07-16T06:37:54.787Z,33.1
2017-07-16T06:38:52.736Z,33.1
2017-07-16T06:39:52.723Z,33
2017-07-16T06:40:52.769Z,33
2017-07-16T06:41:52.668Z,33
2017-07-16T06:42:52.819Z,33
2017-07-16T06:43:55.082Z,33
2017-07-16T06:44:52.907Z,33.1
2017-07-16T06:45:56.274Z,33.1
2017-07-16T06:46:52.973Z,33
2017-07-16T06:47:53.043Z,33.1
2017-07-16T06:48:55.085Z,33.1
2017-07-16T06:49:53.413Z,33
2017-07-16T06:50:56.511Z,33
2017-07-16T06:51:53.194Z,33
2017-07-16T06:52:53.353Z,33
2017-07-16T06:53:53.308Z,33
2017-07-16T06:54:53.464Z,33
2017-07-16T06:55:53.659Z,33
2017-07-16T06:56:56.837Z,33
2017-07-16T06:57:55.488Z,33
2017-07-16T06:58:55.658Z,33
2017-07-16T06:59:57.016Z,33
2017-07-16T07:00:53.869Z,33
2017-07-16T07:01:57.439Z,33
2017-07-16T07:02:53.954Z,33
2017-07-16T07:03:54.032Z,33
2017-07-16T07:04:57.413Z,33
2017-07-16T07:05:57.439Z,33
2017-07-16T07:06:54.168Z,33
2017-07-16T07:07:54.575Z,33
2017-07-16T07:08:56.257Z,33
2017-07-16T07:09:54.309Z,33
2017-07-16T07:10:54.435Z,33
2017-07-16T07:11:56.342Z,33
2017-07-16T07:12:54.638Z,33
2017-07-16T07:13:54.884Z,33
2017-07-16T07:14:54.662Z,33
2017-07-16T07:15:56.575Z,33
2017-07-16T07:16:54.739Z,33
2017-07-16T07:17:58.177Z,33
2017-07-16T07:18:54.754Z,33
2017-07-16T07:19:55.176Z,33
2017-07-16T07:20:58.243Z,33
2017-07-16T07:21:54.934Z,33
2017-07-16T07:22:58.434Z,33
2017-07-16T07:23:57.013Z,33
2017-07-16T07:24:57.076Z,33
2017-07-16T07:25:55.379Z,33
2017-07-16T07:26:57.136Z,33
2017-07-16T07:27:58.585Z,33
2017-07-16T07:28:55.279Z,33
2017-07-16T07:29:55.369Z,33
2017-07-16T07:30:57.324Z,33
2017-07-16T07:31:55.864Z,33.1
2017-07-16T07:32:55.514Z,33.1
2017-07-16T07:33:55.677Z,33
2017-07-16T07:34:55.634Z,33.1
2017-07-16T07:35:59.053Z,33.1
2017-07-16T07:36:59.219Z,33
2017-07-16T07:37:56.184Z,33
2017-07-16T07:38:59.234Z,33
2017-07-16T07:39:57.972Z,33
2017-07-16T07:40:59.477Z,33
2017-07-16T07:41:56.157Z,33
2017-07-16T07:42:59.552Z,33
2017-07-16T07:43:59.891Z,33
2017-07-16T07:44:58.206Z,33
2017-07-16T07:45:56.290Z,33
2017-07-16T07:46:56.459Z,33
2017-07-16T07:47:56.525Z,33
2017-07-16T07:48:58.490Z,33
2017-07-16T07:49:58.857Z,33
2017-07-16T07:50:56.794Z,33
2017-07-16T07:52:00.194Z,33
2017-07-16T07:52:56.982Z,32.9
2017-07-16T07:53:57.026Z,33
2017-07-16T07:54:57.018Z,33
2017-07-16T07:56:00.608Z,33
2017-07-16T07:56:57.039Z,33
2017-07-16T07:58:00.411Z,33
2017-07-16T07:58:59.117Z,32.9
2017-07-16T08:00:00.557Z,32.9
2017-07-16T08:00:57.178Z,32.9
2017-07-16T08:01:59.430Z,32.9
2017-07-16T08:03:00.672Z,32.9
2017-07-16T08:03:57.267Z,32.9
2017-07-16T08:04:57.478Z,32.9
2017-07-16T08:05:59.333Z,32.9
2017-07-16T08:07:00.908Z,32.9
2017-07-16T08:08:01.214Z,32.9
2017-07-16T08:08:59.518Z,32.9
2017-07-16T08:09:57.720Z,32.9
2017-07-16T08:10:57.721Z,32.9
2017-07-16T08:11:57.816Z,32.9
2017-07-16T08:12:57.951Z,32.9
2017-07-16T08:14:00.142Z,32.9
2017-07-16T08:14:57.901Z,32.9
2017-07-16T08:15:57.957Z,32.9
2017-07-16T08:16:57.970Z,32.9
2017-07-16T08:17:59.993Z,32.8
2017-07-16T08:18:58.016Z,32.8
2017-07-16T08:20:01.753Z,32.8
2017-07-16T08:21:01.484Z,32.8
2017-07-16T08:21:58.251Z,32.8
2017-07-16T08:23:01.541Z,32.8
2017-07-16T08:24:01.693Z,32.8
2017-07-16T08:24:58.640Z,32.8
2017-07-16T08:26:00.301Z,32.8
2017-07-16T08:26:58.515Z,32.8
2017-07-16T08:28:00.491Z,32.7
2017-07-16T08:29:01.915Z,32.7
2017-07-16T08:30:01.861Z,32.7
2017-07-16T08:30:58.842Z,32.7
2017-07-16T08:31:58.728Z,32.7
2017-07-16T08:32:58.724Z,32.7
2017-07-16T08:33:58.798Z,32.6
2017-07-16T08:34:58.804Z,32.6
2017-07-16T08:35:58.980Z,32.6
2017-07-16T08:37:02.524Z,32.6
2017-07-16T08:38:02.300Z,32.5
2017-07-16T08:39:02.481Z,32.5
2017-07-16T08:40:01.013Z,32.4
2017-07-16T08:40:59.080Z,32.4
2017-07-16T08:41:59.166Z,32.3
2017-07-16T08:42:59.523Z,32.3
2017-07-16T08:43:59.325Z,32.3
2017-07-16T08:44:59.410Z,32.2
2017-07-16T08:45:59.374Z,32.2
2017-07-16T08:46:59.424Z,32.2
2017-07-16T08:48:01.423Z,32.2
2017-07-16T08:49:01.795Z,32.1
2017-07-16T08:49:59.747Z,32.1
2017-07-16T08:50:59.740Z,32.1
2017-07-16T08:52:01.762Z,32.1
2017-07-16T08:52:59.790Z,32.1
2017-07-16T08:54:03.774Z,32.1
2017-07-16T08:55:00.170Z,32.1
2017-07-16T08:55:59.855Z,32.1
2017-07-16T08:57:03.361Z,32.1
2017-07-16T08:58:00.025Z,32.1
2017-07-16T08:59:03.424Z,32.1
2017-07-16T09:00:03.448Z,32.1
2017-07-16T09:01:00.479Z,32.1
2017-07-16T09:02:00.118Z,32.1
2017-07-16T09:03:02.139Z,32.1
2017-07-16T09:04:03.670Z,32.1
2017-07-16T09:05:03.693Z,32.1
2017-07-16T09:06:00.388Z,32.2
2017-07-16T09:07:02.633Z,32.2
2017-07-16T09:08:00.393Z,32.2
2017-07-16T09:09:03.840Z,32.2
2017-07-16T09:10:03.893Z,32.2
2017-07-16T09:11:04.644Z,32.2
2017-07-16T09:12:04.018Z,32.2
2017-07-16T09:13:00.939Z,32.2
2017-07-16T09:14:00.663Z,32.2
2017-07-16T09:15:00.915Z,32.2
2017-07-16T09:16:01.363Z,32.2
2017-07-16T09:17:00.854Z,32.2
2017-07-16T09:18:00.846Z,32.3
2017-07-16T09:19:03.142Z,32.3
2017-07-16T09:20:02.907Z,32.3
2017-07-16T09:21:00.945Z,32.3
2017-07-16T09:22:01.034Z,32.2
2017-07-16T09:23:00.973Z,32.3
2017-07-16T09:24:01.176Z,32.2
2017-07-16T09:25:04.807Z,32.2
2017-07-16T09:26:03.219Z,32.2
2017-07-16T09:27:01.379Z,32.2
2017-07-16T09:28:03.291Z,32.2
2017-07-16T09:29:04.674Z,32.2
2017-07-16T09:30:01.502Z,32.2
2017-07-16T09:31:03.682Z,32.2
2017-07-16T09:32:04.958Z,32.2
2017-07-16T09:33:03.582Z,32.2
2017-07-16T09:34:01.761Z,32.2
2017-07-16T09:35:01.667Z,32.2
2017-07-16T09:36:03.642Z,32.2
2017-07-16T09:37:02.037Z,32.2
2017-07-16T09:38:01.838Z,32.2
2017-07-16T09:39:01.983Z,32.2
2017-07-16T09:40:05.360Z,32.2
2017-07-16T09:41:01.986Z,32.2
2017-07-16T09:42:02.009Z,32.2
2017-07-16T09:43:02.365Z,32.2
2017-07-16T09:44:02.089Z,32.2
2017-07-16T09:45:02.188Z,32.2
2017-07-16T09:46:02.224Z,32.2
2017-07-16T09:47:05.633Z,32.2
2017-07-16T09:48:04.233Z,32.2
2017-07-16T09:49:05.907Z,32.2
2017-07-16T09:50:05.690Z,32.2
2017-07-16T09:51:02.383Z,32.2
2017-07-16T09:52:02.595Z,32.2
2017-07-16T09:53:02.640Z,32.2
2017-07-16T09:54:06.017Z,32.2
2017-07-16T09:55:06.258Z,32.2
2017-07-16T09:56:04.624Z,32.2
2017-07-16T09:57:04.665Z,32.2
2017-07-16T09:58:06.070Z,32.2
2017-07-16T09:59:06.125Z,32.2
2017-07-16T10:00:04.667Z,32.1
2017-07-16T10:01:03.106Z,32.1
2017-07-16T10:02:02.849Z,32.1
2017-07-16T10:03:06.457Z,32.1
2017-07-16T10:04:06.510Z,32.1
2017-07-16T10:05:06.483Z,32.1
2017-07-16T10:06:06.738Z,32.1
2017-07-16T10:07:06.990Z,32.1
2017-07-16T10:08:03.421Z,32.1
2017-07-16T10:09:07.515Z,32.1
2017-07-16T10:10:03.743Z,32.1
2017-07-16T10:11:03.587Z,32.1
2017-07-16T10:12:03.656Z,32.1
2017-07-16T10:13:06.443Z,32.1
2017-07-16T10:14:03.616Z,32.1
2017-07-16T10:15:06.197Z,32.1
2017-07-16T10:16:03.843Z,32.1
2017-07-16T10:17:03.731Z,32.1
2017-07-16T10:18:06.479Z,32.1
2017-07-16T10:19:07.530Z,32
2017-07-16T10:20:04.066Z,32
2017-07-16T10:21:04.147Z,32
2017-07-16T10:22:03.903Z,32
2017-07-16T10:23:06.595Z,31.9
2017-07-16T10:24:04.112Z,31.9
2017-07-16T10:25:04.347Z,31.9
2017-07-16T10:26:04.148Z,31.8
2017-07-16T10:27:06.124Z,31.8
2017-07-16T10:28:05.381Z,31.8
2017-07-16T10:29:07.709Z,31.9
2017-07-16T10:30:07.752Z,31.9
2017-07-16T10:31:06.684Z,31.9
2017-07-16T10:32:07.938Z,31.9
2017-07-16T10:33:06.293Z,31.9
2017-07-16T10:34:07.768Z,31.9
2017-07-16T10:35:07.762Z,31.9
2017-07-16T10:36:07.937Z,31.9
2017-07-16T10:37:07.876Z,31.9
2017-07-16T10:38:06.638Z,31.9
2017-07-16T10:39:06.670Z,31.9
2017-07-16T10:40:06.682Z,31.9
2017-07-16T10:41:06.723Z,31.9
2017-07-16T10:42:08.127Z,31.9
2017-07-16T10:43:04.847Z,32
2017-07-16T10:44:04.909Z,31.9
2017-07-16T10:45:05.065Z,31.9
2017-07-16T10:46:08.422Z,31.9
2017-07-16T10:47:06.949Z,31.9
2017-07-16T10:48:07.083Z,31.9
2017-07-16T10:49:05.171Z,32
2017-07-16T10:50:05.366Z,32
2017-07-16T10:51:08.665Z,32
2017-07-16T10:52:05.327Z,32
2017-07-16T10:53:05.438Z,32
2017-07-16T10:54:05.553Z,32
2017-07-16T10:55:07.485Z,32
2017-07-16T10:56:07.431Z,32
2017-07-16T10:57:05.576Z,32
2017-07-16T10:58:05.539Z,32
2017-07-16T10:59:05.744Z,31.9
2017-07-16T11:00:05.769Z,31.9
2017-07-16T11:01:07.842Z,31.9
2017-07-16T11:02:05.845Z,31.9
2017-07-16T11:03:07.902Z,31.9
2017-07-16T11:04:09.360Z,31.9
2017-07-16T11:05:09.362Z,31.9
2017-07-16T11:06:09.320Z,32
2017-07-16T11:07:05.922Z,32
2017-07-16T11:08:09.328Z,32
2017-07-16T11:09:07.971Z,32
2017-07-16T11:10:06.137Z,32
2017-07-16T11:11:08.174Z,32
2017-07-16T11:12:08.195Z,32.1
2017-07-16T11:13:06.363Z,32.1
2017-07-16T11:14:09.787Z,32.1
2017-07-16T11:15:09.764Z,32.1
2017-07-16T11:16:09.905Z,32.2
2017-07-16T11:17:09.955Z,32.2
2017-07-16T11:18:08.593Z,32.2
2017-07-16T11:19:09.999Z,32.2
2017-07-16T11:20:06.703Z,32.2
2017-07-16T11:21:06.788Z,32.2
2017-07-16T11:22:06.868Z,32.3
2017-07-16T11:23:06.816Z,32.3
2017-07-16T11:24:06.917Z,32.3
2017-07-16T11:25:06.863Z,32.3
2017-07-16T11:26:10.343Z,32.3
2017-07-16T11:27:08.984Z,32.3
2017-07-16T11:28:07.102Z,32.3
2017-07-16T11:29:07.140Z,32.3
2017-07-16T11:30:09.046Z,32.3
2017-07-16T11:31:07.265Z,32.3
2017-07-16T11:32:07.282Z,32.3
2017-07-16T11:33:07.168Z,32.3
2017-07-16T11:34:10.692Z,32.3
2017-07-16T11:35:09.670Z,32.3
2017-07-16T11:36:10.882Z,32.3
2017-07-16T11:37:07.834Z,32.3
2017-07-16T11:38:11.173Z,32.3
2017-07-16T11:39:07.845Z,32.3
2017-07-16T11:40:07.863Z,32.3
2017-07-16T11:41:11.525Z,32.3
2017-07-16T11:42:11.281Z,32.3
2017-07-16T11:43:08.015Z,32.3
2017-07-16T11:44:08.000Z,32.4
2017-07-16T11:45:11.489Z,32.4
2017-07-16T11:46:08.061Z,32.4
2017-07-16T11:47:09.056Z,32.4
2017-07-16T11:48:12.163Z,32.4
2017-07-16T11:49:10.101Z,32.4
2017-07-16T11:50:11.595Z,32.4
2017-07-16T11:51:10.242Z,32.4
2017-07-16T11:52:10.296Z,32.4
2017-07-16T11:53:08.791Z,32.4
2017-07-16T11:54:10.265Z,32.4
2017-07-16T11:55:12.279Z,32.4
2017-07-16T11:56:11.657Z,32.4
2017-07-16T11:57:11.066Z,32.4
2017-07-16T11:58:09.329Z,32.4
2017-07-16T11:59:12.265Z,32.4
2017-07-16T12:00:12.026Z,32.4
2017-07-16T12:01:10.755Z,32.3
2017-07-16T12:02:12.264Z,32.3
2017-07-16T12:03:09.548Z,32.3
2017-07-16T12:04:10.824Z,32.3
2017-07-16T12:05:10.623Z,32.3
2017-07-16T12:06:08.881Z,32.3
2017-07-16T12:07:12.910Z,32.3
2017-07-16T12:08:09.012Z,32.3
2017-07-16T12:09:09.246Z,32.3
2017-07-16T12:10:12.617Z,32.3
2017-07-16T12:11:09.648Z,32.3
2017-07-16T12:12:11.279Z,32.3
2017-07-16T12:13:12.885Z,32.3
2017-07-16T12:14:12.667Z,32.3
2017-07-16T12:15:09.382Z,32.3
2017-07-16T12:16:09.542Z,32.3
2017-07-16T12:17:11.576Z,32.2
2017-07-16T12:18:11.372Z,32.2
2017-07-16T12:19:11.430Z,32.2
2017-07-16T12:20:09.583Z,32.2
2017-07-16T12:21:12.025Z,32.2
2017-07-16T12:22:12.916Z,32.2
2017-07-16T12:23:13.977Z,32.2
2017-07-16T12:24:10.308Z,32.2
2017-07-16T12:25:11.721Z,32.2
2017-07-16T12:26:11.248Z,32.2
2017-07-16T12:27:11.718Z,32.2
2017-07-16T12:28:11.731Z,32.2
2017-07-16T12:29:13.567Z,32.1
2017-07-16T12:30:13.155Z,32.1
2017-07-16T12:31:09.912Z,32.1
2017-07-16T12:32:10.009Z,32.1
2017-07-16T12:33:13.398Z,32.1
2017-07-16T12:34:12.015Z,32.1
2017-07-16T12:35:12.355Z,32.1
2017-07-16T12:36:13.497Z,32.1
2017-07-16T12:37:12.160Z,32.1
2017-07-16T12:38:10.387Z,32.1
2017-07-16T12:39:12.307Z,32.1
2017-07-16T12:40:10.452Z,32.2
2017-07-16T12:41:12.447Z,32.2
2017-07-16T12:42:13.969Z,32.2
2017-07-16T12:43:12.460Z,32.2
2017-07-16T12:44:10.719Z,32.2
2017-07-16T12:45:14.112Z,32.2
2017-07-16T12:46:14.162Z,32.2
2017-07-16T12:47:14.160Z,32.2
2017-07-16T12:48:10.948Z,32.2
2017-07-16T12:49:14.301Z,32.2
2017-07-16T12:50:10.970Z,32.2
2017-07-16T12:51:11.094Z,32.3
2017-07-16T12:52:13.091Z,32.3
2017-07-16T12:53:11.222Z,32.3
2017-07-16T12:54:11.095Z,32.3
2017-07-16T12:55:13.156Z,32.3
2017-07-16T12:56:13.136Z,32.3
2017-07-16T12:57:13.314Z,32.2
2017-07-16T12:58:14.782Z,32.3
2017-07-16T12:59:13.340Z,32.2
2017-07-16T13:00:13.434Z,32.2
2017-07-16T13:01:11.503Z,32.2
2017-07-16T13:02:11.510Z,32.2
2017-07-16T13:03:11.639Z,32.2
2017-07-16T13:04:14.930Z,32.1
2017-07-16T13:05:13.533Z,32.1
2017-07-16T13:06:11.631Z,32
2017-07-16T13:07:11.767Z,32
2017-07-16T13:08:11.752Z,32
2017-07-16T13:09:11.756Z,32
2017-07-16T13:10:11.818Z,32
2017-07-16T13:11:13.924Z,32
2017-07-16T13:12:14.072Z,32
2017-07-16T13:13:15.650Z,32
2017-07-16T13:14:15.667Z,32
2017-07-16T13:15:12.401Z,32
2017-07-16T13:16:12.361Z,32
2017-07-16T13:17:12.366Z,32
2017-07-16T13:18:12.387Z,32
2017-07-16T13:19:14.307Z,32
2017-07-16T13:20:14.365Z,31.9
2017-07-16T13:21:12.480Z,31.9
2017-07-16T13:22:16.549Z,31.9
2017-07-16T13:23:15.893Z,31.8
2017-07-16T13:24:15.959Z,31.8
2017-07-16T13:25:16.117Z,31.8
2017-07-16T13:26:14.665Z,31.7